Time;durP1;ratioP1;P1;durP2;ratioP2;P2;SDS_P1;SDS_P2;PMS_P1;PMS_P2;Temp;Humidity;BMP_temperature;BMP_pressure;BME280_temperature;BME280_humidity;BME280_pressure;Samples;Min_cycle;Max_cycle;Signal;HPM_P1;HPM_P2
2022/11/26 00:00:20;;;;;;;;;;;5.40;86.80;;;4.15;80.69;96874.47;5071002;28;19920;-82
2022/11/26 00:02:48;;;;;;;;;;;5.40;86.70;;;4.16;80.41;96872.59;5071383;28;19920;-81
2022/11/26 00:05:16;;;;;;;;;;;5.40;86.70;;;4.16;80.39;96875.31;5070814;28;19921;-81
2022/11/26 00:07:47;;;;;;;;;;;5.30;86.80;;;4.17;80.73;96878.84;5072316;28;19935;-81
2022/11/26 00:10:18;;;;;;;;;;;5.40;86.70;;;4.15;80.79;96879.06;5071262;28;20363;-81
2022/11/26 00:12:48;;;;;;;;;;;5.40;86.80;;;4.17;80.39;96884.25;5071248;28;19927;-81
2022/11/26 00:15:17;;;;;;;;;;;5.40;86.70;;;4.16;80.88;96886.16;5053831;28;19921;-81
2022/11/26 00:17:45;;;;;;;;;;;5.40;86.90;;;4.15;80.87;96890.72;5070902;28;19920;-81
2022/11/26 00:20:13;;;;;;;;;;;5.30;86.80;;;4.16;80.73;96894.28;5070760;28;19921;-81
2022/11/26 00:22:41;;;;;;;;;;;5.40;86.80;;;4.14;80.52;96891.75;5054340;28;19920;-81
2022/11/26 00:25:20;;;;;;;;;;;5.40;86.80;;;4.16;80.16;96896.97;5070475;28;19921;-81
2022/11/26 00:27:50;;;;;;;;;;;5.30;86.70;;;4.15;80.26;96884.47;5072016;28;19924;-81
2022/11/26 00:30:19;;;;;;;;;;;5.40;86.70;;;4.14;80.70;96894.47;5070578;28;19927;-81
2022/11/26 00:32:47;;;;;;;;;;;5.30;86.70;;;4.15;80.43;96900.75;5071006;28;19934;-81
2022/11/26 00:35:15;;;;;;;;;;;5.30;86.80;;;4.15;80.47;96892.59;5069951;28;20235;-81
2022/11/26 00:37:47;;;;;;;;;;;5.40;86.70;;;4.16;80.34;96896.97;5070703;28;19921;-81
2022/11/26 00:40:23;;;;;;;;;;;5.40;86.70;;;4.15;80.65;96898.84;5070655;28;20212;-81
2022/11/26 00:42:53;;;;;;;;;;;5.40;86.80;;;4.14;80.35;96888.22;5071662;28;20235;-81
2022/11/26 00:45:22;;;;;;;;;;;5.40;86.80;;;4.15;80.65;96895.31;5070123;28;19921;-81
2022/11/26 00:47:50;;;;;;;;;;;5.40;86.80;;;4.14;80.88;96893.66;5054015;28;20451;-81
2022/11/26 00:50:18;;;;;;;;;;;5.40;86.80;;;4.14;80.58;96891.75;5071599;28;19920;-81
2022/11/26 00:52:47;;;;;;;;;;;5.40;86.70;;;4.14;80.66;96893.66;5071804;28;19927;-81
2022/11/26 00:55:19;;;;;;;;;;;5.40;86.70;;;4.15;80.50;96889.91;5070107;28;19920;-81
2022/11/26 00:57:47;;;;;;;;;;;5.40;86.80;;;4.14;80.79;96893.66;5071548;28;19920;-81
2022/11/26 01:00:18;;;;;;;;;;;5.40;87.00;;;4.14;80.83;96899.06;5070199;28;19920;-81
2022/11/26 01:02:46;;;;;;;;;;;5.30;86.80;;;4.14;80.95;96904.50;5071664;28;19921;-81
2022/11/26 01:05:14;;;;;;;;;;;5.40;86.90;;;4.14;80.73;96899.06;5070043;28;19927;-81
2022/11/26 01:07:42;;;;;;;;;;;5.30;86.80;;;4.13;80.19;96906.34;5070322;28;19925;-81
2022/11/26 01:10:16;;;;;;;;;;;5.30;86.90;;;4.13;80.69;96903.63;5071388;28;19927;-81
2022/11/26 01:12:43;;;;;;;;;;;5.30;86.80;;;4.14;80.57;96901.78;5053704;28;20216;-81
2022/11/26 01:15:12;;;;;;;;;;;5.40;86.80;;;4.13;80.55;96903.63;5069820;28;19928;-81
2022/11/26 01:17:41;;;;;;;;;;;5.30;86.80;;;4.13;80.35;96908.25;5069976;28;19921;-81
2022/11/26 01:20:21;;;;;;;;;;;5.40;86.70;;;4.14;80.66;96909.91;5070481;28;19920;-81
2022/11/26 01:22:49;;;;;;;;;;;5.30;86.70;;;4.13;80.86;96914.47;5086519;28;19926;-81
2022/11/26 01:25:17;;;;;;;;;;;5.40;86.70;;;4.13;80.44;96909.06;5070757;28;19927;-82
2022/11/26 01:27:45;;;;;;;;;;;5.40;86.80;;;4.13;80.35;96910.94;5053329;28;20115;-81
2022/11/26 01:30:17;;;;;;;;;;;5.30;86.80;;;4.12;80.48;96907.41;5071299;28;19926;-81
2022/11/26 01:32:46;;;;;;;;;;;5.30;86.70;;;4.12;80.85;96909.28;5071249;28;20124;-81
2022/11/26 01:35:14;;;;;;;;;;;5.30;86.80;;;4.13;80.70;96902.81;5070433;28;19927;-81
2022/11/26 01:37:42;;;;;;;;;;;5.30;86.80;;;4.12;80.94;96893.88;5070894;28;20119;-81
2022/11/26 01:40:58;;;;;;;;;;;5.30;86.80;;;4.12;80.57;96901.16;5052878;28;19921;-81
2022/11/26 01:43:27;;;;;;;;;;;5.30;86.80;;;4.12;80.38;96901.16;5029140;28;19920;-81
2022/11/26 01:45:55;;;;;;;;;;;5.30;86.80;;;4.11;80.98;96894.91;5070539;28;20205;-81
2022/11/26 01:48:28;;;;;;;;;;;5.30;86.80;;;4.12;80.47;96890.31;5069698;28;20216;-81
2022/11/26 01:50:58;;;;;;;;;;;5.30;86.80;;;4.11;80.24;96889.50;5069786;28;19921;-81
2022/11/26 01:53:44;;;;;;;;;;;5.30;86.70;;;4.12;80.99;96901.16;5069200;28;20144;-81
2022/11/26 01:56:26;;;;;;;;;;;5.30;86.80;;;4.11;80.55;96900.34;5069601;28;20135;-81
2022/11/26 01:58:55;;;;;;;;;;;5.30;86.90;;;4.12;80.89;96906.56;5069766;28;20234;-81
2022/11/26 02:01:23;;;;;;;;;;;5.30;86.90;;;4.10;80.73;96897.81;5069749;28;19920;-81
2022/11/26 02:03:57;;;;;;;;;;;5.30;86.70;;;4.11;80.43;96903.03;5052690;28;19920;-81
2022/11/26 02:06:26;;;;;;;;;;;5.30;86.80;;;4.11;80.81;96899.50;5069445;28;20212;-81
2022/11/26 02:08:55;;;;;;;;;;;5.30;86.80;;;4.11;80.41;96896.78;5069360;28;19920;-81
2022/11/26 02:11:23;;;;;;;;;;;5.30;86.80;;;4.10;80.69;96900.53;5070723;28;19927;-81
2022/11/26 02:13:52;;;;;;;;;;;5.30;86.80;;;4.10;81.14;96887.81;5069036;28;20131;-81
2022/11/26 02:16:28;;;;;;;;;;;5.30;86.90;;;4.11;80.33;96891.34;5071366;28;19991;-81
2022/11/26 02:19:04;;;;;;;;;;;5.30;86.70;;;4.11;80.71;96899.50;5073910;28;19921;-81
2022/11/26 02:21:32;;;;;;;;;;;5.30;86.80;;;4.10;80.67;96898.66;5072837;28;19920;-81
2022/11/26 02:24:12;;;;;;;;;;;5.30;86.80;;;4.10;80.56;96898.66;5072520;28;19935;-81
2022/11/26 02:26:56;;;;;;;;;;;5.30;86.80;;;4.10;81.01;96900.53;5072536;28;19920;-81
2022/11/26 02:29:27;;;;;;;;;;;5.30;86.90;;;4.10;80.84;96897.81;5056108;28;20120;-81
2022/11/26 02:31:59;;;;;;;;;;;5.30;86.80;;;4.10;80.83;96906.78;5072825;28;20213;-81
2022/11/26 02:34:32;;;;;;;;;;;5.30;86.90;;;4.09;80.57;96905.13;5073861;28;19927;-81
2022/11/26 02:37:01;;;;;;;;;;;5.30;87.00;;;4.10;80.63;96897.81;5072138;28;19921;-81
2022/11/26 02:39:30;;;;;;;;;;;5.30;86.80;;;4.10;80.75;96909.50;5072290;28;20098;-81
2022/11/26 02:42:01;;;;;;;;;;;5.30;86.80;;;4.10;80.64;96905.94;5072826;28;19920;-81
2022/11/26 02:44:31;;;;;;;;;;;5.30;86.90;;;4.09;80.77;96905.13;5073369;28;20314;-81
2022/11/26 02:47:02;;;;;;;;;;;5.30;86.80;;;4.09;80.51;96907.00;5072159;28;20116;-81
2022/11/26 02:49:30;;;;;;;;;;;5.30;86.70;;;4.08;81.06;96900.75;5055646;28;19927;-81
2022/11/26 02:51:59;;;;;;;;;;;5.30;86.90;;;4.09;80.88;96901.56;5055739;28;19920;-81
2022/11/26 02:54:27;;;;;;;;;;;5.30;86.90;;;4.08;80.61;96906.16;5073253;28;19926;-81
2022/11/26 02:56:54;;;;;;;;;;;5.30;86.80;;;4.09;80.81;96909.69;5071708;28;19920;-81
2022/11/26 02:59:23;;;;;;;;;;;5.30;86.80;;;4.08;80.54;96913.44;5073630;28;19920;-81
2022/11/26 03:01:52;;;;;;;;;;;5.30;86.80;;;4.09;80.36;96904.28;5072409;28;19934;-81
2022/11/26 03:04:23;;;;;;;;;;;5.30;86.90;;;4.09;80.56;96907.00;5055304;28;19920;-80
2022/11/26 03:06:51;;;;;;;;;;;5.30;86.90;;;4.09;80.82;96907.00;5071948;28;20208;-81
2022/11/26 03:09:19;;;;;;;;;;;5.30;86.80;;;4.09;80.72;96912.41;5072110;28;19921;-81
2022/11/26 03:11:47;;;;;;;;;;;5.30;87.00;;;4.08;80.83;96908.03;5071682;28;20124;-81
2022/11/26 03:14:15;;;;;;;;;;;5.30;86.80;;;4.08;80.31;96908.03;5071726;28;19921;-81
2022/11/26 03:16:43;;;;;;;;;;;5.30;86.80;;;4.08;80.81;96905.31;5054771;28;19921;-81
2022/11/26 03:19:11;;;;;;;;;;;5.30;86.80;;;4.09;80.82;96913.25;5071882;28;19927;-81
2022/11/26 03:21:40;;;;;;;;;;;5.30;86.90;;;4.08;81.02;96914.31;5071963;28;19921;-81
2022/11/26 03:24:08;;;;;;;;;;;5.30;87.00;;;4.08;80.74;96910.75;5071419;28;20128;-81
2022/11/26 03:26:36;;;;;;;;;;;5.30;87.00;;;4.08;80.93;96916.16;5054321;28;19950;-81
2022/11/26 03:29:04;;;;;;;;;;;5.30;86.90;;;4.07;80.84;96915.34;5055010;28;19927;-81
2022/11/26 03:31:32;;;;;;;;;;;5.30;86.90;;;4.08;80.31;96913.44;5071901;28;19921;-81
2022/11/26 03:34:00;;;;;;;;;;;5.30;86.80;;;4.07;81.03;96903.66;5071687;28;20355;-81
2022/11/26 03:36:28;;;;;;;;;;;5.30;87.70;;;4.08;80.50;96916.16;5071574;28;19921;-81
2022/11/26 03:38:57;;;;;;;;;;;5.30;86.90;;;4.08;80.41;96916.16;5072395;28;19921;-81
2022/11/26 03:41:25;;;;;;;;;;;5.30;86.80;;;4.08;80.77;96913.44;5070697;28;20116;-81
2022/11/26 03:43:53;;;;;;;;;;;5.30;86.80;;;4.08;80.59;96916.16;5071096;28;19920;-81
2022/11/26 03:46:21;;;;;;;;;;;5.30;86.80;;;4.08;80.86;96918.88;5072399;28;19927;-81
2022/11/26 03:48:49;;;;;;;;;;;5.30;86.90;;;4.07;80.92;96917.19;5071250;28;19921;-81
2022/11/26 03:51:17;;;;;;;;;;;5.30;86.90;;;4.07;80.57;96919.91;5071296;28;19921;-81
2022/11/26 03:53:45;;;;;;;;;;;5.30;86.90;;;4.06;80.44;96920.97;5072300;28;19920;-81
2022/11/26 03:56:14;;;;;;;;;;;5.30;86.80;;;4.06;80.54;96927.22;5071082;28;20201;-81
2022/11/26 03:58:42;;;;;;;;;;;5.30;86.90;;;4.07;80.99;96925.34;5071414;28;19920;-81
2022/11/26 04:01:10;;;;;;;;;;;5.30;87.00;;;4.07;80.65;96928.03;5071495;28;19920;-81
2022/11/26 04:03:38;;;;;;;;;;;5.30;86.80;;;4.07;80.70;96933.47;5070875;28;19928;-81
2022/11/26 04:06:07;;;;;;;;;;;5.30;86.90;;;4.07;80.57;96941.59;5054386;28;19920;-81
2022/11/26 04:08:34;;;;;;;;;;;5.30;86.90;;;4.07;80.72;96941.59;5054410;28;19920;-81
2022/11/26 04:11:02;;;;;;;;;;;5.30;86.90;;;4.07;80.49;96947.00;5072391;28;19927;-81
2022/11/26 04:13:32;;;;;;;;;;;5.30;87.00;;;4.05;80.79;96941.81;5070672;28;19921;-81
2022/11/26 04:16:00;;;;;;;;;;;5.30;86.90;;;4.05;80.37;96944.50;5054077;28;19920;-81
2022/11/26 04:18:27;;;;;;;;;;;5.30;86.80;;;4.06;80.43;96939.94;5071004;28;20213;-81
2022/11/26 04:20:55;;;;;;;;;;;5.30;86.90;;;4.07;80.70;96936.16;5072007;28;19925;-81
2022/11/26 04:23:23;;;;;;;;;;;5.30;87.00;;;4.06;80.98;96939.94;5070561;28;19927;-81
2022/11/26 04:25:51;;;;;;;;;;;5.30;87.80;;;4.05;81.14;96935.56;5070775;28;19921;-81
2022/11/26 04:28:19;;;;;;;;;;;5.30;87.00;;;4.05;80.60;96944.50;5070846;28;19921;-81
2022/11/26 04:30:48;;;;;;;;;;;5.30;86.90;;;4.06;80.43;96945.38;5071072;28;19927;-81
2022/11/26 04:33:16;;;;;;;;;;;5.30;86.90;;;4.05;80.46;96941.00;5053758;28;19921;-81
2022/11/26 04:35:44;;;;;;;;;;;5.30;86.80;;;4.05;80.41;96943.69;5104159;28;19928;-81
2022/11/26 04:38:12;;;;;;;;;;;5.30;86.90;;;4.05;80.74;96941.00;5069952;28;19927;-81
2022/11/26 04:40:40;;;;;;;;;;;5.20;86.80;;;4.05;81.16;96949.13;5070393;28;19921;-81
2022/11/26 04:43:08;;;;;;;;;;;5.30;87.00;;;4.04;80.93;96953.69;5070537;28;19925;-81
2022/11/26 04:45:36;;;;;;;;;;;5.30;87.00;;;4.04;80.93;96952.88;5070284;28;19920;-81
2022/11/26 04:48:06;;;;;;;;;;;5.20;86.90;;;4.04;80.99;96950.16;5070858;28;19920;-81
2022/11/26 04:50:34;;;;;;;;;;;5.20;86.90;;;4.05;80.73;96962.66;5053917;28;20234;-81
2022/11/26 04:53:02;;;;;;;;;;;5.20;87.00;;;4.04;80.76;96969.13;5070427;28;20128;-81
2022/11/26 04:55:30;;;;;;;;;;;5.30;87.00;;;4.04;80.98;96967.22;5070192;28;19927;-81
2022/11/26 04:57:59;;;;;;;;;;;5.30;87.00;;;4.04;80.91;96963.72;5070282;28;20212;-81
2022/11/26 05:00:27;;;;;;;;;;;5.20;86.80;;;4.03;80.97;96968.28;5053722;28;20093;-81
2022/11/26 05:02:55;;;;;;;;;;;5.20;86.70;;;4.04;80.87;96966.41;5070448;28;20097;-81
2022/11/26 05:05:24;;;;;;;;;;;5.20;86.80;;;4.05;80.57;96976.22;5071029;28;19920;-81
2022/11/26 05:07:52;;;;;;;;;;;5.20;86.80;;;4.04;80.67;96974.53;5070411;28;19927;-81
2022/11/26 05:10:20;;;;;;;;;;;5.30;87.00;;;4.04;81.03;96979.97;5070044;28;19921;-81
2022/11/26 05:12:48;;;;;;;;;;;5.20;86.90;;;4.02;80.91;96985.56;5053713;28;19927;-81
2022/11/26 05:15:16;;;;;;;;;;;5.20;86.80;;;4.04;81.00;96990.81;5069802;28;20111;-81
2022/11/26 05:17:44;;;;;;;;;;;5.30;87.10;;;4.04;81.00;96985.38;5053345;28;19934;-81
2022/11/26 05:20:13;;;;;;;;;;;5.20;87.00;;;4.03;81.01;96983.72;5053651;28;19935;-81
2022/11/26 05:22:43;;;;;;;;;;;5.30;87.00;;;4.02;80.80;96985.56;5070210;28;19928;-81
2022/11/26 05:25:10;;;;;;;;;;;5.30;87.00;;;4.03;80.58;96989.13;5053176;28;19920;-81
2022/11/26 05:27:38;;;;;;;;;;;5.20;86.80;;;4.03;80.49;96989.13;5069945;28;20116;-81
2022/11/26 05:30:08;;;;;;;;;;;5.20;86.80;;;4.02;80.88;96991.00;5053185;28;19943;-81
2022/11/26 05:32:35;;;;;;;;;;;5.30;87.00;;;4.03;80.98;96999.97;5071125;28;19920;-81
2022/11/26 05:35:04;;;;;;;;;;;5.30;87.00;;;4.02;80.40;96996.41;5070436;28;19920;-81
2022/11/26 05:37:32;;;;;;;;;;;5.20;86.80;;;4.03;80.84;97002.69;5070815;28;19924;-81
2022/11/26 05:40:01;;;;;;;;;;;5.20;86.70;;;4.03;80.98;97005.38;5069791;28;19922;-81
2022/11/26 05:42:29;;;;;;;;;;;5.20;86.80;;;4.03;80.44;97010.81;5069791;28;19928;-81
2022/11/26 05:44:57;;;;;;;;;;;5.30;87.00;;;4.02;80.63;97020.78;5069499;28;19927;-81
2022/11/26 05:47:25;;;;;;;;;;;5.20;87.00;;;4.02;80.84;97014.56;5070923;28;19921;-81
2022/11/26 05:49:53;;;;;;;;;;;5.20;86.90;;;4.02;80.99;97019.97;5053814;28;19924;-81
2022/11/26 05:52:21;;;;;;;;;;;5.20;86.80;;;4.02;80.91;97019.97;5073554;28;19921;-81
2022/11/26 05:54:49;;;;;;;;;;;5.30;87.00;;;4.03;80.81;97027.88;5072806;28;19921;-81
2022/11/26 05:57:18;;;;;;;;;;;5.20;86.90;;;4.02;80.56;97030.81;5073482;28;20372;-81
2022/11/26 05:59:47;;;;;;;;;;;5.20;86.90;;;4.02;80.79;97034.34;5074395;28;19920;-81
2022/11/26 06:02:15;;;;;;;;;;;5.20;86.90;;;4.01;80.68;97040.78;5073487;28;19920;-81
2022/11/26 06:04:43;;;;;;;;;;;5.20;86.90;;;4.02;80.54;97030.81;5055955;28;19920;-81
2022/11/26 06:07:11;;;;;;;;;;;5.20;86.90;;;4.01;80.98;97037.25;5073005;28;19921;-81
2022/11/26 06:09:39;;;;;;;;;;;5.20;87.00;;;4.01;81.11;97040.78;5072828;28;20005;-81
2022/11/26 06:12:07;;;;;;;;;;;5.20;86.90;;;4.03;80.80;97043.31;5073202;28;19920;-81
2022/11/26 06:14:36;;;;;;;;;;;5.20;86.90;;;4.02;81.01;97037.03;5056184;28;20120;-81
2022/11/26 06:17:04;;;;;;;;;;;5.20;87.00;;;4.02;80.76;97041.66;5106280;28;19928;-81
2022/11/26 06:19:32;;;;;;;;;;;5.20;86.90;;;4.02;80.81;97041.66;5072981;28;20094;-81
2022/11/26 06:22:00;;;;;;;;;;;5.20;86.90;;;4.01;80.74;97051.63;5056110;28;19921;-81
2022/11/26 06:24:28;;;;;;;;;;;5.20;86.90;;;4.02;80.96;97052.47;5072712;28;19927;-81
2022/11/26 06:26:56;;;;;;;;;;;5.20;86.80;;;4.01;80.63;97056.22;5072523;28;20196;-81
2022/11/26 06:29:24;;;;;;;;;;;5.20;86.80;;;4.01;80.60;97061.66;5072772;28;19927;-81
2022/11/26 06:31:53;;;;;;;;;;;5.20;86.80;;;4.01;80.38;97062.47;5073997;28;19927;-81
2022/11/26 06:34:22;;;;;;;;;;;5.20;86.80;;;4.01;80.54;97070.59;5055655;28;19921;-81
2022/11/26 06:36:50;;;;;;;;;;;5.20;86.80;;;4.02;80.36;97068.75;5072373;28;19920;-81
2022/11/26 06:39:18;;;;;;;;;;;5.20;86.80;;;4.02;80.57;97074.16;5055691;28;19935;-81
2022/11/26 06:41:46;;;;;;;;;;;5.20;87.60;;;4.01;80.53;97073.31;5073832;28;19926;-81
2022/11/26 06:44:14;;;;;;;;;;;5.20;86.80;;;4.00;80.81;97077.09;5072562;28;19920;-81
2022/11/26 06:46:42;;;;;;;;;;;5.20;86.80;;;4.01;80.85;97083.31;5072200;28;19927;-81
2022/11/26 06:49:11;;;;;;;;;;;5.20;86.80;;;4.01;80.69;97078.72;5072532;28;19927;-81
2022/11/26 06:51:39;;;;;;;;;;;5.20;86.90;;;4.02;81.12;97082.28;5073788;28;19920;-81
2022/11/26 06:54:07;;;;;;;;;;;5.20;87.00;;;4.01;80.98;97083.31;5072411;28;19920;-81
2022/11/26 06:56:35;;;;;;;;;;;5.20;86.80;;;4.01;81.06;97094.16;5055616;28;19921;-81
2022/11/26 06:59:03;;;;;;;;;;;5.20;86.80;;;4.01;80.87;97094.16;5072232;28;19927;-80
2022/11/26 07:01:31;;;;;;;;;;;5.20;86.80;;;3.99;80.41;97100.63;5072658;28;19921;-81
2022/11/26 07:03:59;;;;;;;;;;;5.20;86.80;;;4.02;80.83;97101.25;5071915;28;20227;-81
2022/11/26 07:06:29;;;;;;;;;;;5.20;86.80;;;4.03;80.68;97102.94;5055429;28;20314;-81
2022/11/26 07:08:58;;;;;;;;;;;5.20;86.90;;;4.01;80.71;97105.00;5073223;28;19995;-81
2022/11/26 07:11:26;;;;;;;;;;;5.20;87.00;;;4.01;80.83;97116.66;5072131;28;19925;-81
2022/11/26 07:13:54;;;;;;;;;;;5.20;87.00;;;4.00;80.63;97109.59;5071903;28;19920;-81
2022/11/26 07:16:22;;;;;;;;;;;5.20;86.80;;;4.01;81.00;97116.66;5071731;28;20108;-81
2022/11/26 07:18:50;;;;;;;;;;;5.20;86.80;;;4.01;80.59;97126.69;5071796;28;19926;-80
2022/11/26 07:21:18;;;;;;;;;;;5.20;87.00;;;4.01;80.63;97129.38;5072057;28;19920;-81
2022/11/26 07:23:47;;;;;;;;;;;5.20;86.90;;;4.00;81.08;97125.84;5071549;28;19921;-81
2022/11/26 07:26:16;;;;;;;;;;;5.20;86.90;;;3.99;80.64;97125.00;5071658;28;19921;-80
2022/11/26 07:28:46;;;;;;;;;;;5.20;86.80;;;4.01;81.07;97134.81;5071793;28;19920;-81
2022/11/26 07:31:14;;;;;;;;;;;5.20;87.00;;;4.01;80.89;97132.91;5072100;28;19927;-81
2022/11/26 07:33:42;;;;;;;;;;;5.20;87.00;;;4.00;80.75;97139.41;5072636;28;19920;-80
2022/11/26 07:36:13;;;;;;;;;;;5.20;86.80;;;4.00;80.52;97133.97;5071687;28;19920;-81
2022/11/26 07:38:41;;;;;;;;;;;5.20;86.90;;;4.01;80.92;97140.22;5071341;28;19920;-81
2022/11/26 07:41:11;;;;;;;;;;;5.20;86.90;;;4.01;80.99;97134.81;5071611;28;19920;-80
2022/11/26 07:43:40;;;;;;;;;;;5.20;86.90;;;4.01;81.09;97137.50;5071217;28;19931;-80
2022/11/26 07:46:10;;;;;;;;;;;5.20;87.60;;;4.01;80.78;97137.50;5071247;28;19927;-80
2022/11/26 07:48:39;;;;;;;;;;;5.20;86.90;;;4.02;80.61;97148.13;5071519;28;19920;-80
2022/11/26 07:51:07;;;;;;;;;;;5.20;86.80;;;4.01;80.86;97142.94;5071417;28;20119;-80
2022/11/26 07:53:35;;;;;;;;;;;5.20;86.80;;;4.02;80.79;97147.31;5072366;28;19920;-80
2022/11/26 07:56:04;;;;;;;;;;;5.20;86.80;;;4.01;80.76;97140.22;5072370;28;19921;-80
2022/11/26 07:58:33;;;;;;;;;;;5.20;86.80;;;4.01;80.94;97148.34;5071309;28;20111;-80
2022/11/26 08:01:07;;;;;;;;;;;5.20;86.80;;;4.01;80.85;97145.63;5071243;28;19920;-80
2022/11/26 08:03:37;;;;;;;;;;;5.20;86.80;;;4.02;80.47;97145.41;5070970;28;20209;-80
2022/11/26 08:06:07;;;;;;;;;;;5.20;86.70;;;4.02;80.90;97139.19;5071327;28;20540;-80
2022/11/26 08:08:35;;;;;;;;;;;5.20;86.80;;;4.03;80.94;97138.16;5054508;28;19920;-80
2022/11/26 08:11:03;;;;;;;;;;;5.30;87.00;;;4.02;80.56;97147.31;5071295;28;19927;-80
2022/11/26 08:13:32;;;;;;;;;;;5.20;86.80;;;4.02;80.92;97145.41;5054090;28;19920;-80
2022/11/26 08:16:00;;;;;;;;;;;5.20;86.80;;;4.05;80.82;97146.91;5070760;28;19920;-80
2022/11/26 08:18:28;;;;;;;;;;;5.30;87.00;;;4.04;80.42;97142.53;5054471;28;19927;-80
2022/11/26 08:20:56;;;;;;;;;;;5.30;86.80;;;4.05;80.65;97144.19;5072473;28;19927;-80
2022/11/26 08:23:24;;;;;;;;;;;5.30;86.90;;;4.06;80.78;97154.00;5070769;28;19926;-81
2022/11/26 08:25:52;;;;;;;;;;;5.30;86.90;;;4.08;80.83;97168.16;5070807;28;19926;-80
2022/11/26 08:28:20;;;;;;;;;;;5.30;86.80;;;4.07;80.69;97170.03;5072052;28;19927;-80
2022/11/26 08:30:50;;;;;;;;;;;5.30;86.70;;;4.10;80.82;97174.19;5070997;28;19920;-81
2022/11/26 08:33:18;;;;;;;;;;;5.30;86.80;;;4.10;80.50;97175.06;5070862;28;19920;-80
2022/11/26 08:35:46;;;;;;;;;;;5.30;86.70;;;4.10;80.46;97176.91;5070404;28;19920;-80
2022/11/26 08:38:14;;;;;;;;;;;5.30;86.70;;;4.09;80.38;97173.38;5087632;28;20120;-80
2022/11/26 08:40:42;;;;;;;;;;;5.30;86.70;;;4.10;80.43;97179.63;5070842;28;19921;-80
2022/11/26 08:43:09;;;;;;;;;;;5.30;86.70;;;4.10;80.30;97185.03;5071835;28;19926;-80
2022/11/26 08:45:37;;;;;;;;;;;5.30;86.70;;;4.09;80.67;97189.63;5053825;28;20119;-80
2022/11/26 08:48:07;;;;;;;;;;;5.30;87.50;;;4.09;80.72;97186.09;5071586;28;19920;-80
2022/11/26 08:50:35;;;;;;;;;;;5.30;86.70;;;4.09;80.71;97184.22;5070627;28;19920;-80
2022/11/26 08:53:03;;;;;;;;;;;5.30;86.70;;;4.09;80.32;97183.38;5070564;28;19952;-80
2022/11/26 08:55:31;;;;;;;;;;;5.30;86.70;;;4.10;80.64;97190.47;5070025;28;19921;-80
2022/11/26 08:57:59;;;;;;;;;;;5.30;86.60;;;4.09;80.43;97189.63;5053764;28;19927;-80
2022/11/26 09:00:27;;;;;;;;;;;5.30;86.60;;;4.10;80.71;97190.47;5070641;28;19927;-81
2022/11/26 09:02:55;;;;;;;;;;;5.30;86.70;;;4.10;80.32;97185.03;5053902;28;19921;-80
2022/11/26 09:05:24;;;;;;;;;;;5.30;86.60;;;4.11;80.47;97184.00;5070076;28;19924;-80
2022/11/26 09:07:53;;;;;;;;;;;5.30;86.70;;;4.10;80.82;97180.47;5070125;28;19934;-80
2022/11/26 09:10:21;;;;;;;;;;;5.30;86.60;;;4.11;80.84;97184.84;5071474;28;19920;-80
2022/11/26 09:12:49;;;;;;;;;;;5.30;86.60;;;4.12;80.24;97177.56;5053750;28;19920;-80
2022/11/26 09:15:17;;;;;;;;;;;5.30;86.50;;;4.10;80.46;97182.34;5070944;28;19921;-80
2022/11/26 09:17:45;;;;;;;;;;;5.30;86.50;;;4.10;80.25;97185.03;5069916;28;19926;-81
2022/11/26 09:20:13;;;;;;;;;;;5.30;86.50;;;4.10;80.32;97174.19;5069759;28;19920;-80
2022/11/26 09:22:42;;;;;;;;;;;5.30;86.50;;;4.10;80.13;97182.34;5053585;28;20112;-81
2022/11/26 09:25:10;;;;;;;;;;;5.30;86.50;;;4.10;80.53;97179.63;5068765;28;19920;-80
2022/11/26 09:27:38;;;;;;;;;;;5.30;86.50;;;4.09;80.52;97180.66;5070089;28;19920;-80
2022/11/26 09:30:07;;;;;;;;;;;5.30;86.50;;;4.09;80.17;97180.66;5071217;28;19927;-80
2022/11/26 09:32:36;;;;;;;;;;;5.30;87.40;;;4.08;80.51;97182.56;5069669;28;19928;-80
2022/11/26 09:35:04;;;;;;;;;;;5.30;86.50;;;4.07;80.56;97180.88;5070618;28;19935;-80
2022/11/26 09:37:32;;;;;;;;;;;5.30;86.50;;;4.08;80.21;97179.84;5069707;28;20217;-80
2022/11/26 09:40:01;;;;;;;;;;;5.30;86.50;;;4.08;80.35;97179.84;5070899;28;19925;-80
2022/11/26 09:42:39;;;;;;;;;;;5.30;86.60;;;4.09;80.21;97183.38;5053323;28;20119;-80
2022/11/26 09:45:13;;;;;;;;;;;5.30;86.60;;;4.09;80.27;97188.78;5069476;28;19929;-80
2022/11/26 09:47:42;;;;;;;;;;;5.30;86.50;;;4.08;80.81;97184.41;5069807;28;19920;-81
2022/11/26 09:50:30;;;;;;;;;;;5.30;86.60;;;4.09;80.59;97183.38;5069477;28;20018;-80
2022/11/26 09:52:59;;;;;;;;;;;5.30;86.60;;;4.09;80.41;97188.78;5070016;28;19920;-81
2022/11/26 09:55:30;;;;;;;;;;;5.30;86.50;;;4.09;80.29;97194.22;5069199;28;19921;-81
2022/11/26 09:58:02;;;;;;;;;;;5.30;86.50;;;4.09;80.79;97197.78;5086552;28;19986;-80
2022/11/26 10:00:31;;;;;;;;;;;5.30;86.60;;;4.09;80.58;97192.34;5069605;28;20235;-80
2022/11/26 10:02:59;;;;;;;;;;;5.30;86.50;;;4.10;80.30;97185.03;5070558;28;20101;-80
2022/11/26 10:05:43;;;;;;;;;;;5.30;86.40;;;4.09;80.47;97189.63;5069267;28;19924;-80
2022/11/26 10:08:40;;;;;;;;;;;5.30;86.50;;;4.11;80.28;97186.72;5069347;28;20140;-80
2022/11/26 10:11:10;;;;;;;;;;;5.30;86.40;;;4.09;80.58;97183.38;5036741;28;19927;-80
2022/11/26 10:13:42;;;;;;;;;;;5.30;86.40;;;4.10;80.56;97179.63;5086106;28;19935;-80
2022/11/26 10:16:13;;;;;;;;;;;5.30;87.30;;;4.10;80.49;97179.63;5069305;28;19987;-80
2022/11/26 10:18:44;;;;;;;;;;;5.30;86.40;;;4.09;80.50;97178.81;5069357;28;19927;-80
2022/11/26 10:21:17;;;;;;;;;;;5.30;86.40;;;4.10;80.31;97185.03;5069590;28;19927;-81
2022/11/26 10:23:47;;;;;;;;;;;5.30;86.40;;;4.10;80.16;97183.19;5069208;28;19928;-80
2022/11/26 10:26:17;;;;;;;;;;;5.30;86.40;;;4.10;80.01;97183.19;5069069;28;20131;-80
2022/11/26 10:28:46;;;;;;;;;;;5.30;86.40;;;4.10;80.66;97185.03;5070299;28;19927;-80
2022/11/26 10:31:19;;;;;;;;;;;5.30;86.40;;;4.10;80.26;97190.47;5070564;28;19986;-81
2022/11/26 10:33:54;;;;;;;;;;;5.30;86.40;;;4.10;80.49;97185.03;5068960;28;19983;-80
2022/11/26 10:36:26;;;;;;;;;;;5.30;86.20;;;4.10;80.10;97185.03;5070304;28;19927;-81
2022/11/26 10:38:55;;;;;;;;;;;5.30;86.30;;;4.09;80.41;97184.22;5073620;28;19921;-80
2022/11/26 10:41:26;;;;;;;;;;;5.30;86.20;;;4.10;80.28;97193.16;5073941;28;19920;-81
2022/11/26 10:43:54;;;;;;;;;;;5.30;86.30;;;4.11;80.54;97200.25;5072396;28;19920;-81
2022/11/26 10:46:33;;;;;;;;;;;5.30;86.40;;;4.10;80.67;97190.47;5072224;28;19926;-81
2022/11/26 10:49:21;;;;;;;;;;;5.30;86.40;;;4.10;80.37;97198.59;5073760;28;20213;-80
2022/11/26 10:51:49;;;;;;;;;;;5.30;86.40;;;4.10;80.47;97193.16;5072509;28;19927;-81
2022/11/26 10:54:24;;;;;;;;;;;5.30;86.30;;;4.10;80.14;97204.00;5072398;28;20246;-80
2022/11/26 10:56:53;;;;;;;;;;;5.30;86.30;;;4.10;80.45;97204.00;5073221;28;19926;-80
2022/11/26 10:59:24;;;;;;;;;;;5.30;86.30;;;4.11;80.29;97200.25;5073429;28;19920;-81
2022/11/26 11:01:52;;;;;;;;;;;5.30;86.30;;;4.09;80.34;97200.47;5072518;28;19924;-80
2022/11/26 11:04:27;;;;;;;;;;;5.30;86.30;;;4.09;80.20;97205.06;5072115;28;19920;-81
2022/11/26 11:06:55;;;;;;;;;;;5.30;86.30;;;4.10;80.21;97201.31;5071584;28;20248;-80
2022/11/26 11:09:32;;;;;;;;;;;5.30;86.30;;;4.09;80.39;97205.06;5072131;28;19920;-80
2022/11/26 11:12:21;;;;;;;;;;;5.30;86.40;;;4.09;80.03;97205.06;5073255;28;19920;-80
2022/11/26 11:14:49;;;;;;;;;;;5.30;86.20;;;4.09;80.25;97199.63;5054927;28;20208;-81
2022/11/26 11:17:35;;;;;;;;;;;5.30;86.20;;;4.08;80.30;97201.53;5072126;28;19927;-80
2022/11/26 11:20:22;;;;;;;;;;;5.30;86.30;;;4.09;80.23;97211.31;5072016;28;19920;-80
2022/11/26 11:22:56;;;;;;;;;;;5.30;86.30;;;4.08;79.93;97203.38;5071815;28;19921;-81
2022/11/26 11:25:25;;;;;;;;;;;5.30;86.40;;;4.08;80.53;97204.22;5071557;28;19927;-80
2022/11/26 11:27:55;;;;;;;;;;;5.30;86.40;;;4.08;79.98;97208.78;5071647;28;20121;-81
2022/11/26 11:30:24;;;;;;;;;;;5.30;86.40;;;4.08;80.42;97203.38;5054984;28;20212;-81
2022/11/26 11:32:55;;;;;;;;;;;5.30;86.40;;;4.08;80.22;97204.22;5071505;28;19920;-80
2022/11/26 11:35:24;;;;;;;;;;;5.30;86.40;;;4.07;80.25;97202.56;5071605;28;20223;-81
2022/11/26 11:37:52;;;;;;;;;;;5.30;86.30;;;4.09;80.31;97196.91;5071542;28;20124;-81
2022/11/26 11:40:24;;;;;;;;;;;5.30;86.40;;;4.08;80.05;97197.97;5071451;28;19927;-81
2022/11/26 11:42:56;;;;;;;;;;;5.30;86.20;;;4.08;80.09;97197.97;5071742;28;19920;-80
2022/11/26 11:45:33;;;;;;;;;;;5.30;86.30;;;4.09;80.10;97205.06;5070778;28;19947;-80